Time;durP1;ratioP1;P1;durP2;ratioP2;P2;SDS_P1;SDS_P2;PMS_P1;PMS_P2;Temp;Humidity;BMP_temperature;BMP_pressure;BME280_temperature;BME280_humidity;BME280_pressure;Samples;Min_cycle;Max_cycle;Signal;HPM_P1;HPM_P2
2022/05/24 00:00:50;;;;;;;6.10;4.00;;;;;;;26.28;47.58;99983.63;5115036;28;20387;-76
2022/05/24 00:03:19;;;;;;;6.93;3.92;;;;;;;26.28;47.56;99983.63;5115080;28;20070;-76
2022/05/24 00:05:48;;;;;;;6.47;3.40;;;;;;;26.28;47.62;99984.47;5114625;28;20395;-76
2022/05/24 00:08:16;;;;;;;5.75;3.85;;;;;;;26.27;47.55;99985.50;5114228;28;20060;-76
2022/05/24 00:10:47;;;;;;;7.25;4.10;;;;;;;26.29;47.86;99996.16;5115040;28;20047;-76
2022/05/24 00:13:14;;;;;;;7.07;3.83;;;;;;;26.27;47.64;99990.09;5114453;28;20040;-76
2022/05/24 00:15:41;;;;;;;6.85;3.95;;;;;;;26.27;47.85;99993.66;5114915;28;20387;-76
2022/05/24 00:18:14;;;;;;;6.05;3.47;;;;;;;26.27;47.46;99990.94;5113328;28;20054;-76
2022/05/24 00:20:45;;;;;;;6.05;3.80;;;;;;;26.27;47.47;100001.78;5114142;28;20047;-76
2022/05/24 00:23:13;;;;;;;5.45;3.55;;;;;;;26.27;47.51;100015.34;5114480;28;20048;-76
2022/05/24 00:25:44;;;;;;;5.07;3.55;;;;;;;26.27;47.52;100009.94;5114409;28;20044;-76
2022/05/24 00:28:12;;;;;;;7.03;3.35;;;;;;;26.27;47.64;100003.66;5112150;28;20164;-76
2022/05/24 00:30:40;;;;;;;5.32;3.15;;;;;;;26.26;47.53;100002.84;5113828;28;20040;-76
2022/05/24 00:33:08;;;;;;;5.57;3.58;;;;;;;26.26;47.74;100007.44;5113819;28;20398;-76
2022/05/24 00:35:36;;;;;;;5.28;3.15;;;;;;;26.25;47.31;100006.59;5114506;28;20047;-76
2022/05/24 00:38:07;;;;;;;4.95;3.17;;;;;;;26.25;47.08;100003.88;5113945;28;20047;-76
2022/05/24 00:40:41;;;;;;;5.70;3.50;;;;;;;26.24;47.16;100002.19;5111801;28;20055;-76
2022/05/24 00:43:27;;;;;;;5.53;3.42;;;;;;;26.24;47.12;100009.47;5113695;28;20036;-77
2022/05/24 00:46:02;;;;;;;7.60;3.40;;;;;;;26.24;47.21;100009.47;5114522;28;20043;-77
2022/05/24 00:48:37;;;;;;;7.55;4.38;;;;;;;26.24;47.24;100006.78;5114000;28;20422;-77
2022/05/24 00:51:08;;;;;;;7.18;3.75;;;;;;;26.23;47.35;100005.94;5112451;28;20475;-77
2022/05/24 00:53:51;;;;;;;6.85;3.83;;;;;;;26.22;47.33;100006.97;5114230;28;20106;-76
2022/05/24 00:56:34;;;;;;;8.23;3.80;;;;;;;26.22;47.19;99998.84;5113705;28;20047;-76
2022/05/24 00:59:06;;;;;;;5.65;3.72;;;;;;;26.22;47.34;100000.72;5113560;28;20036;-76
2022/05/24 01:01:47;;;;;;;8.18;3.53;;;;;;;26.22;47.34;99987.16;5114291;28;20048;-77
2022/05/24 01:04:22;;;;;;;5.35;3.67;;;;;;;26.22;47.32;99989.88;5114483;28;20044;-77
2022/05/24 01:06:50;;;;;;;6.00;3.30;;;;;;;26.21;47.37;99980.91;5114047;28;20048;-77
2022/05/24 01:09:22;;;;;;;6.22;3.30;;;;;;;26.21;47.20;99985.44;5111886;28;20039;-77
2022/05/24 01:11:54;;;;;;;7.43;3.50;;;;;;;26.20;47.33;99991.94;5113854;28;20055;-77
2022/05/24 01:14:23;;;;;;;6.85;3.50;;;;;;;26.20;47.09;99990.03;5113730;28;20045;-77
2022/05/24 01:16:52;;;;;;;6.05;3.67;;;;;;;26.20;47.44;99991.94;5113535;28;20051;-77
2022/05/24 01:19:41;;;;;;;5.28;3.63;;;;;;;26.20;47.06;99997.34;5114225;28;20036;-77
2022/05/24 01:22:47;;;;;;;4.10;3.15;;;;;;;26.19;47.34;99985.66;5113962;28;20048;-77
2022/05/24 01:25:22;;;;;;;7.82;3.60;;;;;;;26.20;47.40;99986.50;5051458;28;20064;-76
2022/05/24 01:27:50;;;;;;;7.68;3.75;;;;;;;26.20;47.46;99984.63;5051311;28;20421;-77
2022/05/24 01:30:17;;;;;;;6.97;3.78;;;;;;;26.19;47.37;99977.53;5050838;28;20057;-76
2022/05/24 01:38:24;;;;;;;4.53;3.20;;;;;;;26.19;47.66;99982.94;5050667;28;20061;-76
2022/05/24 01:40:53;;;;;;;6.47;3.40;;;;;;;26.19;47.44;99988.38;5050445;28;20617;-76
2022/05/24 01:43:24;;;;;;;6.68;3.55;;;;;;;26.17;47.25;99987.75;5050677;28;20060;-76
2022/05/24 01:46:03;;;;;;;9.32;4.28;;;;;;;26.18;47.00;99983.16;5050714;28;20123;-76
2022/05/24 01:48:47;;;;;;;7.75;4.05;;;;;;;26.16;46.91;99983.34;5050761;28;20403;-76
2022/05/24 01:51:18;;;;;;;10.65;3.88;;;;;;;26.16;46.94;99972.47;5051294;28;20057;-76
2022/05/24 01:53:50;;;;;;;10.38;3.90;;;;;;;26.16;47.04;99987.94;5051181;28;20060;-76
2022/05/24 01:57:28;;;;;;;6.38;3.75;;;;;;;26.16;47.20;99979.78;5033827;28;20543;-75
2022/05/24 01:59:58;;;;;;;5.95;3.63;;;;;;;26.16;47.22;99985.22;4991352;28;20065;-75
2022/05/24 02:02:27;;;;;;;6.55;3.72;;;;;;;26.16;47.38;99987.94;5015259;28;20397;-75
2022/05/24 02:04:55;;;;;;;7.68;4.22;;;;;;;26.15;47.21;99992.53;5031771;28;20057;-76
2022/05/24 02:07:25;;;;;;;7.25;4.10;;;;;;;26.14;47.27;99993.56;5014735;28;20065;-75
2022/05/24 02:09:56;;;;;;;9.13;3.75;;;;;;;26.14;47.49;99986.25;5034385;28;20057;-75
2022/05/24 02:12:40;;;;;;;5.80;3.40;;;;;;;26.15;47.28;99995.22;5036237;28;20049;-75
2022/05/24 02:15:17;;;;;;;8.82;4.15;;;;;;;26.14;47.23;99991.69;5036416;28;20076;-75
2022/05/24 02:17:56;;;;;;;8.77;3.97;;;;;;;26.14;47.23;99996.28;5034927;28;20453;-75
2022/05/24 02:20:29;;;;;;;6.50;3.60;;;;;;;26.14;47.00;100002.53;5018071;28;20120;-76
2022/05/24 02:22:57;;;;;;;;;;;;;;;26.16;47.02;99993.34;5018128;28;20065;-75
2022/05/24 02:25:33;;;;;;;7.55;3.58;;;;;;;26.14;47.20;99997.09;5033718;28;19921;-75
2022/05/24 02:28:02;;;;;;;4.80;3.60;;;;;;;26.14;47.01;100004.41;5034328;28;20117;-75
2022/05/24 02:30:31;;;;;;;7.10;3.47;;;;;;;26.14;47.03;100007.97;5033746;28;20053;-75
2022/05/24 02:32:58;;;;;;;8.73;4.07;;;;;;;26.14;46.97;100007.13;5037891;28;20053;-75
2022/05/24 02:35:27;;;;;;;7.38;3.50;;;;;;;26.12;47.12;100007.31;5078005;28;20040;-75
2022/05/24 02:37:54;;;;;;;8.45;4.20;;;;;;;26.13;46.81;99997.31;5115757;28;20052;-76
2022/05/24 02:43:07;;;;;;;5.28;3.75;;;;;;;26.12;46.82;100011.91;5116346;28;20043;-76
2022/05/24 02:45:35;;;;;;;5.93;3.90;;;;;;;26.12;46.77;100011.91;5116232;28;20066;-76
2022/05/24 02:48:04;;;;;;;6.45;3.63;;;;;;;26.11;46.71;100013.78;5115169;28;20055;-76
2022/05/24 02:50:31;;;;;;;6.88;3.92;;;;;;;26.12;46.99;100010.03;5114078;28;20043;-76
2022/05/24 02:52:59;;;;;;;9.05;4.43;;;;;;;26.12;47.00;100014.59;5115708;28;20052;-76
2022/05/24 02:55:30;;;;;;;7.15;3.67;;;;;;;26.12;46.86;100011.91;5114241;28;20074;-76
2022/05/24 02:57:57;;;;;;;6.32;4.43;;;;;;;26.12;46.89;100006.47;5116159;28;20113;-76
2022/05/24 03:00:26;;;;;;;4.40;3.63;;;;;;;26.11;46.71;100010.22;5115828;28;20051;-76
2022/05/24 03:02:53;;;;;;;7.53;4.53;;;;;;;26.10;46.78;100012.09;5116225;28;20048;-75
2022/05/24 03:05:22;;;;;;;6.57;4.00;;;;;;;26.11;46.90;100008.34;5115814;28;20043;-75
2022/05/24 03:10:37;;;;;;;6.38;4.15;;;;;;;26.10;46.70;100019.41;5116518;28;20449;-75
2022/05/24 03:15:51;;;;;;;9.48;4.50;;;;;;;26.09;46.49;100020.41;5116121;28;20504;-75
2022/05/24 03:18:21;;;;;;;5.53;4.82;;;;;;;26.07;45.95;100022.50;5115237;28;20058;-76
2022/05/24 03:20:49;;;;;;;8.57;4.63;;;;;;;26.05;45.96;100016.41;5114538;28;20055;-76
2022/05/24 03:23:17;;;;;;;8.85;5.00;;;;;;;26.03;45.66;100010.38;5115302;28;20054;-76
2022/05/24 03:25:45;;;;;;;10.30;4.75;;;;;;;26.02;45.08;100011.41;5113520;28;20054;-76
2022/05/24 03:28:12;;;;;;;6.30;4.63;;;;;;;26.01;44.95;100012.41;5115181;28;20411;-75
2022/05/24 03:30:43;;;;;;;7.28;4.80;;;;;;;25.99;45.10;100014.50;5113855;28;20043;-75
2022/05/24 03:33:12;;;;;;;7.63;4.80;;;;;;;25.98;44.33;100015.53;5115554;28;20050;-76
2022/05/24 03:35:40;;;;;;;6.90;5.15;;;;;;;25.96;44.24;100018.44;5114297;28;20052;-75
2022/05/24 03:38:08;;;;;;;11.23;5.40;;;;;;;25.94;44.24;100016.97;5115359;28;20062;-75
2022/05/24 03:40:35;;;;;;;7.95;5.00;;;;;;;25.92;43.73;100016.31;5114943;28;20047;-75
2022/05/24 03:43:04;;;;;;;7.95;4.93;;;;;;;25.91;43.71;100020.06;5114759;28;20039;-75
2022/05/24 03:45:32;;;;;;;6.75;4.38;;;;;;;25.89;43.66;100026.53;5114787;28;20048;-75
2022/05/24 03:48:00;;;;;;;6.00;5.40;;;;;;;25.89;44.60;100022.97;5114860;28;20052;-75
2022/05/24 03:50:27;;;;;;;6.38;4.63;;;;;;;25.86;44.19;100024.19;5113731;28;20043;-75
2022/05/24 03:52:54;;;;;;;8.07;5.28;;;;;;;25.86;44.42;100035.03;5114880;28;20051;-75
2022/05/24 03:55:22;;;;;;;7.82;4.97;;;;;;;25.84;43.77;100037.09;5112624;28;20054;-75
2022/05/24 03:58:01;;;;;;;9.50;4.85;;;;;;;25.84;43.51;100039.81;5114925;28;20039;-75
2022/05/24 04:00:34;;;;;;;5.68;4.85;;;;;;;25.83;43.84;100042.72;5115244;28;20043;-77
2022/05/24 04:03:03;;;;;;;8.15;5.25;;;;;;;25.82;43.61;100043.75;5114716;28;20047;-75
2022/05/24 04:05:32;;;;;;;6.53;4.88;;;;;;;25.81;43.64;100053.78;5112268;28;20062;-75
2022/05/24 04:08:01;;;;;;;8.70;4.85;;;;;;;25.80;44.22;100052.06;5113200;28;20391;-75
2022/05/24 04:10:30;;;;;;;8.40;5.65;;;;;;;25.81;44.43;100061.06;5114739;28;20048;-75
2022/05/24 04:12:59;;;;;;;10.27;5.25;;;;;;;25.79;43.91;100066.66;5095891;28;20051;-75
2022/05/24 04:15:27;;;;;;;9.05;5.35;;;;;;;25.79;43.72;100063.13;5114543;28;20043;-75
2022/05/24 04:17:55;;;;;;;7.95;5.00;;;;;;;25.78;44.30;100067.72;5114258;28;20047;-75
2022/05/24 04:20:25;;;;;;;9.05;5.60;;;;;;;25.78;44.09;100080.44;5112688;28;20375;-76
2022/05/24 04:22:54;;;;;;;6.07;4.70;;;;;;;25.77;44.11;100082.31;5114410;28;20040;-76
2022/05/24 04:25:22;;;;;;;8.68;5.45;;;;;;;25.78;44.48;100077.72;5095789;28;20066;-76
2022/05/24 04:27:49;;;;;;;5.93;4.65;;;;;;;25.76;44.29;100088.72;5114796;28;20513;-76
2022/05/24 04:30:20;;;;;;;8.10;5.75;;;;;;;25.77;44.18;100089.56;5114188;28;20478;-75
2022/05/24 04:32:50;;;;;;;8.15;5.65;;;;;;;25.75;43.84;100092.47;5114267;28;20047;-76
2022/05/24 04:35:18;;;;;;;7.10;5.05;;;;;;;25.74;43.88;100084.53;5113998;28;20050;-75
2022/05/24 04:37:45;;;;;;;7.15;5.05;;;;;;;25.73;44.30;100086.41;5114113;28;20062;-75
2022/05/24 04:40:13;;;;;;;9.52;5.88;;;;;;;25.73;44.42;100088.28;5114344;28;20044;-75
2022/05/24 04:42:40;;;;;;;8.98;5.00;;;;;;;25.73;44.21;100089.13;5114641;28;20371;-75
2022/05/24 04:45:13;;;;;;;7.43;5.10;;;;;;;25.73;44.30;100093.69;5113658;28;20044;-76
2022/05/24 04:47:40;;;;;;;8.13;5.35;;;;;;;25.73;44.38;100101.84;5114578;28;20394;-76
2022/05/24 04:50:12;;;;;;;8.18;5.43;;;;;;;25.73;44.52;100102.66;5113645;28;20058;-76
2022/05/24 04:52:41;;;;;;;7.47;5.22;;;;;;;25.73;44.59;100102.66;5095331;28;20059;-75
2022/05/24 04:55:11;;;;;;;8.13;5.15;;;;;;;25.73;44.67;100108.09;5113772;28;20044;-76
2022/05/24 04:57:39;;;;;;;8.63;5.13;;;;;;;25.73;44.90;100096.41;5113883;28;20047;-75
2022/05/24 05:00:12;;;;;;;8.75;5.88;;;;;;;25.73;44.75;100109.97;5113808;28;20047;-75
2022/05/24 05:02:41;;;;;;;8.45;5.68;;;;;;;25.73;44.97;100099.97;5114110;28;20467;-75
2022/05/24 05:05:09;;;;;;;8.50;5.63;;;;;;;25.73;45.19;100102.66;5112427;28;20051;-75
2022/05/24 05:07:36;;;;;;;8.52;5.65;;;;;;;25.73;45.48;100109.97;5113542;28;20043;-75
2022/05/24 05:10:04;;;;;;;7.88;5.40;;;;;;;25.74;45.75;100098.09;5113856;28;20055;-75
2022/05/24 05:12:31;;;;;;;9.57;5.20;;;;;;;25.74;45.85;100100.78;5113689;28;20040;-75
2022/05/24 05:14:59;;;;;;;7.63;5.90;;;;;;;25.74;46.22;100106.22;5113495;28;20047;-74
2022/05/24 05:17:26;;;;;;;10.57;6.55;;;;;;;25.74;46.68;100100.78;5112790;28;20043;-75
2022/05/24 05:19:54;;;;;;;8.27;5.43;;;;;;;25.73;47.04;100097.25;5113964;28;20047;-75
2022/05/24 05:22:23;;;;;;;9.23;6.00;;;;;;;25.75;47.30;100107.88;5113879;28;20039;-75
2022/05/24 05:24:51;;;;;;;8.82;6.22;;;;;;;25.77;47.72;100108.56;5113895;28;20506;-76
2022/05/24 05:27:19;;;;;;;11.00;7.53;;;;;;;25.75;48.16;100108.72;5113595;28;20055;-76
2022/05/24 05:32:35;;;;;;;14.88;7.45;;;;;;;25.76;48.76;100114.97;5113410;28;20039;-75
2022/05/24 05:35:03;;;;;;;8.70;6.97;;;;;;;25.76;48.93;100123.13;5113352;28;20062;-76
2022/05/24 05:37:33;;;;;;;10.63;7.18;;;;;;;25.76;49.12;100125.81;5113001;28;20050;-75
2022/05/24 05:40:03;;;;;;;7.88;6.55;;;;;;;25.76;48.96;100132.09;5113531;28;20395;-75
2022/05/24 05:42:32;;;;;;;9.38;6.85;;;;;;;25.77;49.14;100135.66;5114413;28;20463;-75
2022/05/24 05:45:00;;;;;;;12.00;8.07;;;;;;;25.76;49.13;100129.38;5117397;28;20107;-75
2022/05/24 05:47:27;;;;;;;11.48;7.38;;;;;;;25.76;48.98;100128.53;5117073;28;20071;-75
2022/05/24 05:49:54;;;;;;;11.10;7.22;;;;;;;25.77;49.31;100133.81;5117404;28;20047;-76
2022/05/24 05:52:22;;;;;;;12.38;7.80;;;;;;;25.76;49.45;100136.66;5116424;28;20032;-76
2022/05/24 05:54:49;;;;;;;20.10;9.32;;;;;;;25.78;49.72;100129.22;5118001;28;20043;-76
2022/05/24 05:57:17;;;;;;;11.85;8.13;;;;;;;25.76;50.21;100137.50;5117680;28;20048;-76
2022/05/24 05:59:45;;;;;;;14.95;9.27;;;;;;;25.77;50.43;100141.97;5115154;28;20059;-76
2022/05/24 06:02:12;;;;;;;15.73;9.25;;;;;;;25.77;51.03;100139.25;5116575;28;20364;-75
2022/05/24 06:04:40;;;;;;;17.80;11.40;;;;;;;25.76;51.33;100140.22;5116904;28;20189;-75
2022/05/24 06:07:08;;;;;;;17.25;11.63;;;;;;;25.76;52.01;100121.25;5117281;28;20043;-76
2022/05/24 06:09:35;;;;;;;19.88;12.20;;;;;;;25.77;52.51;100132.97;5116935;28;20467;-75
2022/05/24 06:12:03;;;;;;;19.77;13.68;;;;;;;25.77;52.62;100135.66;5117019;28;20044;-75
2022/05/24 06:14:31;;;;;;;18.63;11.88;;;;;;;25.76;52.86;100132.09;5116573;28;20043;-75
2022/05/24 06:17:18;;;;;;;16.35;12.10;;;;;;;25.77;53.02;100146.50;5116757;28;20066;-75
2022/05/24 06:19:45;;;;;;;16.88;12.48;;;;;;;25.77;53.30;100139.25;5117050;28;20044;-75
2022/05/24 06:22:13;;;;;;;21.75;12.20;;;;;;;25.76;53.26;100145.66;5117225;28;20467;-75
2022/05/24 06:24:40;;;;;;;20.88;12.60;;;;;;;25.77;53.52;100146.50;5097974;28;20052;-75
2022/05/24 06:27:09;;;;;;;19.23;12.50;;;;;;;25.78;53.70;100150.94;5116725;28;20052;-75
2022/05/24 06:29:37;;;;;;;16.98;11.77;;;;;;;25.78;53.43;100148.22;5116121;28;20387;-74
2022/05/24 06:32:05;;;;;;;17.25;11.75;;;;;;;25.78;54.02;100145.50;5114462;28;20044;-75
2022/05/24 06:34:32;;;;;;;21.45;13.48;;;;;;;25.78;54.85;100156.34;5116264;28;20043;-75
2022/05/24 06:37:00;;;;;;;23.60;16.83;;;;;;;25.36;56.81;100157.84;5115979;28;20074;-75
2022/05/24 06:39:27;;;;;;;26.90;17.38;;;;;;;25.01;57.95;100160.25;5115973;28;20043;-75
2022/05/24 06:42:00;;;;;;;23.15;17.13;;;;;;;25.18;58.21;100166.38;5116530;28;20054;-75
2022/05/24 06:44:33;;;;;;;19.33;15.60;;;;;;;25.26;57.77;100162.72;5115101;28;20063;-75
2022/05/24 06:47:01;;;;;;;27.23;16.98;;;;;;;25.29;57.39;100160.50;5116807;28;20380;-75
2022/05/24 06:49:28;;;;;;;21.00;16.45;;;;;;;25.34;57.85;100155.34;5116006;28;20036;-76
2022/05/24 06:51:55;;;;;;;27.05;19.30;;;;;;;25.38;58.46;100161.22;5116489;28;20471;-75
2022/05/24 06:54:23;;;;;;;26.27;18.73;;;;;;;25.40;58.67;100156.44;5115156;28;20051;-76
2022/05/24 06:56:52;;;;;;;25.25;19.13;;;;;;;25.36;59.12;100157.84;5108366;28;20040;-74
2022/05/24 07:05:19;;;;;;;23.08;17.75;;;;;;;25.46;58.98;100166.56;5095201;28;20044;-73
2022/05/24 07:07:46;;;;;;;25.42;17.80;;;;;;;25.49;58.82;100157.22;5095029;28;20044;-74
2022/05/24 07:10:20;;;;;;;24.33;19.33;;;;;;;25.50;59.50;100154.31;5093659;28;20411;-74
2022/05/24 07:12:57;;;;;;;32.97;21.30;;;;;;;25.47;61.27;100156.53;5095152;28;20051;-74
2022/05/24 07:15:25;;;;;;;30.10;20.80;;;;;;;25.33;60.89;100156.38;5093627;28;20511;-75
2022/05/24 07:17:52;;;;;;;20.77;16.15;;;;;;;25.38;59.69;100161.22;5095135;28;20054;-76
2022/05/24 07:20:20;;;;;;;28.65;21.38;;;;;;;25.42;59.89;100159.81;5093366;28;20048;-74
2022/05/24 07:22:48;;;;;;;22.98;20.55;;;;;;;25.45;60.29;100167.59;5095115;28;20036;-75
2022/05/24 07:25:16;;;;;;;22.63;19.10;;;;;;;25.48;59.86;100161.78;5095116;28;20365;-75
2022/05/24 07:27:44;;;;;;;22.35;19.95;;;;;;;25.49;60.04;100166.19;5095542;28;20044;-74
2022/05/24 07:30:12;;;;;;;25.30;21.75;;;;;;;25.51;60.32;100168.69;5095778;28;20040;-77
2022/05/24 07:32:39;;;;;;;25.05;22.20;;;;;;;25.50;60.27;100175.16;5095308;28;20040;-75
2022/05/24 07:35:08;;;;;;;25.98;21.40;;;;;;;25.50;60.73;100167.03;5095091;28;20059;-76
2022/05/24 07:37:35;;;;;;;26.42;22.05;;;;;;;25.52;61.16;100162.22;5092801;28;20060;-74
2022/05/24 07:48:16;;;;;;;28.15;22.60;;;;;;;25.58;60.28;100161.50;5095017;28;20055;-76
2022/05/24 07:50:43;;;;;;;25.58;22.00;;;;;;;25.54;60.37;100168.31;5094714;28;20066;-74
2022/05/24 07:53:12;;;;;;;24.02;21.52;;;;;;;25.55;60.67;100162.69;5098776;28;20062;-74
2022/05/24 07:55:40;;;;;;;25.20;22.17;;;;;;;25.58;60.79;100162.31;5114801;28;20047;-74
2022/05/24 07:58:07;;;;;;;26.15;21.50;;;;;;;25.60;60.15;100173.84;5112954;28;20065;-74
2022/05/24 08:00:35;;;;;;;25.65;20.15;;;;;;;25.64;60.48;100171.56;5114586;28;20414;-74
2022/05/24 08:03:04;;;;;;;21.02;18.58;;;;;;;25.65;59.62;100165.97;5114268;28;20043;-74
2022/05/24 08:05:34;;;;;;;20.23;17.05;;;;;;;25.69;59.25;100163.72;5114011;28;20046;-76
2022/05/24 08:08:02;;;;;;;24.00;17.63;;;;;;;25.72;58.84;100157.06;5113804;28;20047;-74
2022/05/24 08:10:31;;;;;;;20.77;17.67;;;;;;;25.75;58.45;100153.97;5112659;28;20051;-75
2022/05/24 08:12:58;;;;;;;21.45;18.08;;;;;;;25.80;58.71;100154.28;5114419;28;20478;-73
2022/05/24 08:15:26;;;;;;;20.17;15.75;;;;;;;25.82;58.42;100149.50;5114262;28;20051;-76
2022/05/24 08:17:54;;;;;;;18.50;16.15;;;;;;;25.85;58.41;100158.09;5112884;28;20036;-74
2022/05/24 08:20:21;;;;;;;18.58;16.55;;;;;;;25.88;58.75;100146.84;5106472;28;20043;-75
2022/05/24 08:22:49;;;;;;;21.25;16.65;;;;;;;25.90;58.72;100152.09;5113229;28;20050;-77
2022/05/24 08:25:17;;;;;;;17.15;15.27;;;;;;;25.93;58.32;100149.03;5112593;28;20501;-74
2022/05/24 08:27:45;;;;;;;25.83;19.13;;;;;;;25.96;59.81;100155.91;5112392;28;20058;-75
2022/05/24 08:30:14;;;;;;;22.63;16.70;;;;;;;25.97;58.58;100150.31;5114703;28;20066;-76
2022/05/24 08:32:42;;;;;;;21.98;16.52;;;;;;;25.99;59.01;100141.97;5114361;28;20048;-75
2022/05/24 08:35:13;;;;;;;17.88;16.02;;;;;;;26.00;58.97;100141.78;5113886;28;20066;-74
2022/05/24 08:37:41;;;;;;;18.42;16.02;;;;;;;26.01;59.00;100146.19;5112390;28;20063;-74
2022/05/24 08:40:11;;;;;;;19.17;14.90;;;;;;;26.02;58.85;100142.44;5112423;28;20048;-74
2022/05/24 08:43:16;;;;;;;16.77;14.55;;;;;;;26.04;58.13;100137.63;5113666;28;20036;-74
2022/05/24 08:48:48;;;;;;;17.20;14.73;;;;;;;26.07;58.53;100142.69;5098255;28;20055;-74
2022/05/24 08:51:31;;;;;;;18.27;15.32;;;;;;;26.08;58.68;100146.25;5109981;28;20510;-74
2022/05/24 08:54:12;;;;;;;19.50;15.48;;;;;;;26.09;58.61;100147.91;5112220;28;20513;-76
2022/05/24 08:56:50;;;;;;;16.52;14.43;;;;;;;26.09;58.97;100148.78;5113413;28;20106;-75
2022/05/24 08:59:18;;;;;;;19.23;14.52;;;;;;;26.10;58.68;100153.16;5112711;28;20048;-74
2022/05/24 09:01:48;;;;;;;18.80;15.00;;;;;;;26.10;59.08;100150.44;5112803;28;20043;-75
2022/05/24 09:04:16;;;;;;;17.70;14.77;;;;;;;26.10;59.29;100150.44;5113746;28;20035;-78
2022/05/24 09:07:01;;;;;;;19.25;17.02;;;;;;;26.09;59.66;100154.19;5113649;28;20403;-74
2022/05/24 09:09:58;;;;;;;20.88;16.48;;;;;;;26.06;59.65;100148.31;5113730;28;20522;-77
2022/05/24 09:13:02;;;;;;;19.52;15.98;;;;;;;25.99;59.30;100142.81;5111897;28;20503;-77
2022/05/24 09:16:01;;;;;;;17.60;15.48;;;;;;;25.98;59.33;100141.13;5113709;28;20407;-76
2022/05/24 09:18:48;;;;;;;18.33;16.42;;;;;;;25.96;59.42;100145.06;5115953;28;20044;-75
2022/05/24 09:21:29;;;;;;;17.05;15.25;;;;;;;25.94;59.65;100137.13;5115807;28;20047;-77
2022/05/24 09:23:57;;;;;;;19.95;14.85;;;;;;;25.96;59.41;100140.47;5117729;28;20047;-74
2022/05/24 09:26:24;;;;;;;16.10;14.13;;;;;;;25.95;59.22;100141.53;5117496;28;20051;-74
2022/05/24 09:29:08;;;;;;;18.38;15.70;;;;;;;25.95;58.75;100136.09;5115930;28;20047;-76
2022/05/24 09:31:41;;;;;;;16.40;14.80;;;;;;;25.94;58.78;100139.84;5116643;28;20055;-77
2022/05/24 09:34:33;;;;;;;17.20;13.98;;;;;;;25.94;59.18;100137.13;5117284;28;20047;-77
2022/05/24 09:37:04;;;;;;;17.85;13.93;;;;;;;25.94;59.14;100134.41;5116279;28;20055;-74
2022/05/24 09:39:33;;;;;;;17.05;13.90;;;;;;;25.95;58.95;100136.09;5117005;28;20055;-77
2022/05/24 09:42:28;;;;;;;16.83;13.27;;;;;;;25.95;58.66;100127.13;5116995;28;20054;-77
2022/05/24 09:45:16;;;;;;;15.75;13.68;;;;;;;25.96;58.59;100128.78;5115912;28;20043;-76
2022/05/24 09:47:44;;;;;;;15.00;13.45;;;;;;;25.98;58.45;100132.16;5118310;28;20055;-76
2022/05/24 09:50:32;;;;;;;13.73;12.38;;;;;;;25.99;58.73;100128.41;5117938;28;20040;-76
2022/05/24 09:54:04;;;;;;;14.63;13.13;;;;;;;26.01;58.70;100121.78;5117750;28;20047;-79
2022/05/24 09:56:34;;;;;;;18.58;14.40;;;;;;;26.08;57.74;100122.66;5097519;28;20102;-77
2022/05/24 09:59:05;;;;;;;14.93;12.80;;;;;;;26.20;57.14;100117.56;5096227;28;20055;-76
2022/05/24 10:01:43;;;;;;;14.27;12.07;;;;;;;26.20;57.23;100120.28;5096791;28;20047;-77
2022/05/24 10:04:11;;;;;;;14.73;12.95;;;;;;;26.18;57.33;100118.81;5097249;28;20055;-75
2022/05/24 10:06:41;;;;;;;12.32;11.05;;;;;;;26.18;57.41;100116.09;5096777;28;20052;-74
2022/05/24 10:09:26;;;;;;;14.32;11.75;;;;;;;26.19;57.41;100113.19;5096909;28;20048;-75
2022/05/24 10:12:07;;;;;;;12.35;11.13;;;;;;;26.19;57.27;100109.63;5095909;28;20059;-79
2022/05/24 10:14:50;;;;;;;12.27;11.07;;;;;;;26.21;57.25;100115.69;5096293;28;20052;-74
2022/05/24 10:17:27;;;;;;;12.02;10.73;;;;;;;26.20;57.14;100116.72;5097277;28;20051;-76
2022/05/24 10:19:57;;;;;;;14.00;11.05;;;;;;;26.21;57.01;100118.41;5095888;28;20411;-74
2022/05/24 10:22:46;;;;;;;11.07;10.07;;;;;;;26.22;57.22;100115.50;5095863;28;20051;-80
2022/05/24 10:25:13;;;;;;;11.65;10.55;;;;;;;26.22;57.12;100111.97;5095803;28;20043;-78
2022/05/24 10:27:59;;;;;;;12.70;10.57;;;;;;;26.22;57.00;100117.38;5095875;28;20407;-80
2022/05/24 10:31:04;;;;;;;11.88;10.43;;;;;;;26.23;56.93;100119.91;5094380;28;20047;-76
2022/05/24 10:39:08;;;;;;;10.52;9.45;;;;;;;26.26;56.82;100118.69;5095861;28;20063;-74
2022/05/24 10:41:39;;;;;;;11.15;10.10;;;;;;;26.26;56.86;100118.69;5096018;28;20055;-76
2022/05/24 10:44:16;;;;;;;11.48;9.95;;;;;;;26.26;56.73;100113.25;5095891;28;20141;-73
2022/05/24 10:46:46;;;;;;;11.50;10.32;;;;;;;26.28;56.61;100116.59;5095940;28;20055;-73
2022/05/24 10:49:31;;;;;;;11.25;10.07;;;;;;;26.28;56.62;100106.56;5095509;28;20044;-73
2022/05/24 10:52:08;;;;;;;11.23;9.68;;;;;;;26.30;56.63;100111.81;5096119;28;20044;-73
2022/05/24 10:54:50;;;;;;;11.10;9.32;;;;;;;26.30;56.59;100109.94;5096112;28;20146;-75
2022/05/24 10:57:23;;;;;;;10.32;9.43;;;;;;;26.31;56.85;100102.63;5097018;28;20040;-75
2022/05/24 10:59:57;;;;;;;10.70;9.60;;;;;;;26.32;56.70;100098.88;5096080;28;20047;-74
2022/05/24 11:02:30;;;;;;;10.68;9.57;;;;;;;26.33;56.69;100097.84;5096731;28;20043;-75
2022/05/24 11:05:20;;;;;;;11.43;9.85;;;;;;;26.33;56.48;100104.13;5107252;28;20495;-76
2022/05/24 11:07:53;;;;;;;12.15;9.40;;;;;;;26.34;56.03;100102.25;5102386;28;20052;-77
2022/05/24 11:10:30;;;;;;;9.75;8.80;;;;;;;26.34;56.39;100103.09;5097502;28;20468;-77
2022/05/24 11:13:04;;;;;;;9.90;8.90;;;;;;;26.35;56.58;100099.34;5093572;28;20048;-75
2022/05/24 11:15:54;;;;;;;9.98;8.98;;;;;;;26.35;56.21;100103.94;5095461;28;20044;-75
2022/05/24 11:18:31;;;;;;;10.10;8.95;;;;;;;26.35;56.28;100095.78;5095497;28;20048;-75
2022/05/24 11:21:01;;;;;;;13.05;9.48;;;;;;;26.37;54.65;100091.00;5095270;28;20048;-75
2022/05/24 11:23:46;;;;;;;14.48;9.60;;;;;;;26.39;55.54;100091.66;5095825;28;20043;-75
2022/05/24 11:26:31;;;;;;;9.75;8.20;;;;;;;26.39;55.52;100088.94;5095701;28;20044;-75
2022/05/24 11:29:15;;;;;;;9.05;8.13;;;;;;;26.40;55.61;100093.31;5095915;28;20048;-75
2022/05/24 11:31:47;;;;;;;14.73;8.57;;;;;;;26.54;51.99;100092.44;5095477;28;20048;-75
2022/05/24 11:34:24;;;;;;;14.02;8.80;;;;;;;26.71;50.54;100094.84;5095279;28;20058;-75
2022/05/24 11:37:03;;;;;;;14.70;8.80;;;;;;;26.75;49.82;100087.97;5095182;28;20430;-75
2022/05/24 11:39:37;;;;;;;9.93;7.90;;;;;;;26.74;49.10;100087.16;5094724;28;20051;-75
2022/05/24 11:42:21;;;;;;;12.25;8.45;;;;;;;26.74;49.21;100087.16;5095207;28;20059;-75
2022/05/24 11:44:51;;;;;;;13.82;8.48;;;;;;;26.83;48.84;100091.38;5094142;28;20460;-75
2022/05/24 11:47:34;;;;;;;11.60;8.35;;;;;;;26.83;49.59;100085.09;5091852;28;20396;-82
2022/05/24 11:50:07;;;;;;;11.07;7.45;;;;;;;26.78;50.70;100082.13;5094100;28;20418;-78
2022/05/24 11:53:01;;;;;;;10.60;7.68;;;;;;;26.72;51.22;100080.22;5095449;28;20048;-78
2022/05/24 11:55:48;;;;;;;10.43;7.95;;;;;;;26.75;49.38;100080.66;5094988;28;20055;-76
2022/05/24 11:58:19;;;;;;;11.20;7.78;;;;;;;26.76;48.24;100078.78;5093360;28;20043;-76
2022/05/24 12:01:05;;;;;;;9.20;7.53;;;;;;;26.75;49.40;100074.41;5092624;28;20052;-75
2022/05/24 12:10:22;;;;;;;10.95;7.03;;;;;;;27.00;47.90;100072.03;5012371;28;20072;-74
2022/05/24 12:12:55;;;;;;;13.77;7.40;;;;;;;27.08;47.87;100067.28;5012234;28;20504;-75
2022/05/24 12:15:46;;;;;;;12.57;7.43;;;;;;;27.04;48.86;100066.00;4996109;28;20046;-75
2022/05/24 12:18:18;;;;;;;7.82;6.85;;;;;;;26.98;49.67;100064.09;4995637;28;20061;-74
2022/05/24 12:20:46;;;;;;;9.63;7.07;;;;;;;26.93;49.85;100074.72;5011648;28;20425;-74
2022/05/24 12:23:35;;;;;;;9.30;7.22;;;;;;;26.86;50.12;100077.41;5011784;28;20056;-75
2022/05/24 12:26:17;;;;;;;8.70;6.15;;;;;;;26.81;50.51;100074.44;4995285;28;20529;-73
2022/05/24 12:28:52;;;;;;;8.88;6.43;;;;;;;26.79;51.10;100070.25;4995076;28;20104;-74
2022/05/24 12:31:22;;;;;;;8.30;6.88;;;;;;;26.80;50.56;100063.78;4995399;28;20049;-78